.
WxDataArchive / Data Records for 2014-08-12
2014-08-11 August 2014 2014-08-13

Data Records for Tuesday, 12 August 2014

Time	Temp	Chill	HIndex	Humid	Dewpt	 Wind 	HiWind	WindDir	Rain 	Barom
-----	----	-----	------	-----	-----	------	------	-------	-----	-----
00:00	68.3	68.3	68.3	92	65.9	0	0	---	0.00	29.735 
00:05	68.3	68.3	68.3	92	65.9	0	0	---	0.00	29.735 
00:10	68.1	68.1	68.1	92	65.7	0	0	---	0.00	29.735 
00:15	68.1	68.1	68.1	92	65.7	0	0	---	0.00	29.732 
00:20	68.1	68.1	68.1	92	65.7	0	0	---	0.00	29.732 
00:25	67.9	67.9	67.9	92	65.5	0	0	---	0.00	29.732 
00:30	67.9	67.9	67.9	92	65.5	0	0	---	0.00	29.732 
00:35	67.8	67.8	67.8	92	65.4	0	0	---	0.00	29.732 
00:40	67.8	67.8	67.8	92	65.4	0	0	---	0.00	29.732 
00:45	67.8	67.8	67.8	93	65.7	0	0	---	0.00	29.728 
00:50	67.8	67.8	67.8	93	65.7	0	0	---	0.00	29.728 
00:55	67.6	67.6	67.6	93	65.5	0	0	---	0.00	29.728 
01:00	67.6	67.6	67.6	93	65.5	0	0	---	0.00	29.733 
01:05	67.6	67.6	67.6	93	65.5	0	0	---	0.00	29.733 
01:10	67.6	67.6	67.6	93	65.5	0	0	---	0.00	29.733 
01:15	67.6	67.6	67.6	93	65.5	0	0	---	0.00	29.735 
01:20	67.6	67.6	67.6	93	65.5	0	0	---	0.00	29.735 
01:25	67.4	67.4	67.4	93	65.3	0	0	---	0.00	29.735 
01:30	67.4	67.4	67.4	93	65.3	0	0	---	0.00	29.734 
01:35	67.3	67.3	67.3	93	65.2	0	0	---	0.00	29.734 
01:40	67.3	67.3	67.3	93	65.2	0	0	---	0.00	29.734 
01:45	67.1	67.1	67.1	93	65.0	0	0	---	0.00	29.733 
01:50	67.1	67.1	67.1	93	65.0	0	0	---	0.00	29.733 
01:55	66.9	66.9	66.9	93	64.8	0	0	---	0.00	29.733 
02:00	66.9	66.9	66.9	93	64.8	0	0	---	0.00	29.731 
02:05	66.8	66.8	66.8	93	64.7	0	0	---	0.00	29.731 
02:10	66.9	66.9	66.9	93	64.8	0	0	---	0.00	29.731 
02:15	66.9	66.9	66.9	94	65.1	0	0	---	0.00	29.722 
02:20	66.9	66.9	66.9	94	65.1	0	0	---	0.00	29.722 
02:25	66.9	66.9	66.9	94	65.1	0	0	---	0.00	29.722 
02:30	66.9	66.9	66.9	94	65.1	0	0	---	0.00	29.719 
02:35	66.8	66.8	66.8	94	65.0	0	0	---	0.00	29.719 
02:40	66.8	66.8	66.8	94	65.0	0	0	---	0.00	29.719 
02:45	66.9	66.9	66.9	94	65.1	0	0	---	0.00	29.711 
02:50	66.9	66.9	66.9	94	65.1	0	0	---	0.00	29.711 
02:55	66.9	66.9	66.9	94	65.1	0	0	---	0.00	29.711 
03:00	67.1	67.1	67.1	94	65.3	0	0	---	0.00	29.704 
03:05	67.1	67.1	67.1	94	65.3	0	0	---	0.00	29.704 
03:10	67.1	67.1	67.1	94	65.3	0	0	---	0.00	29.704 
03:15	67.1	67.1	67.1	94	65.3	0	0	---	0.00	29.698 
03:20	67.3	67.3	67.3	94	65.5	0	0	---	0.00	29.698 
03:25	67.3	67.3	67.3	94	65.5	0	0	---	0.00	29.698 
03:30	67.4	67.4	67.4	94	65.6	0	1	270	0.00	29.691 
03:35	67.4	67.4	67.4	94	65.6	0	1	270	0.00	29.691 
03:40	67.6	67.6	67.6	94	65.8	0	1	270	0.00	29.691 
03:45	67.4	67.4	67.4	94	65.6	0	0	---	0.00	29.688 
03:50	67.4	67.4	67.4	94	65.6	0	1	270	0.00	29.688 
03:55	67.4	67.4	67.4	94	65.6	0	0	---	0.00	29.688 
04:00	67.4	67.4	67.4	94	65.6	0	0	---	0.00	29.692 
04:05	67.4	67.4	67.4	94	65.6	0	1	270	0.00	29.692 
04:10	67.6	67.6	67.6	94	65.8	0	1	270	0.00	29.692 
04:15	67.6	67.6	67.6	94	65.8	0	1	270	0.00	29.686 
04:20	67.6	67.6	67.6	94	65.8	0	0	---	0.00	29.686 
04:25	67.6	67.6	67.6	94	65.8	0	1	270	0.00	29.686 
04:30	67.6	67.6	67.6	94	65.8	0	1	270	0.00	29.686 
04:35	67.6	67.6	67.6	94	65.8	0	0	---	0.00	29.686 
04:40	67.6	67.6	67.6	94	65.8	0	1	270	0.00	29.686 
04:45	67.6	67.6	67.6	94	65.8	0	0	---	0.00	29.684 
04:50	67.6	67.6	67.6	94	65.8	0	0	---	0.00	29.684 
04:55	67.6	67.6	67.6	94	65.8	0	1	270	0.00	29.684 
05:00	67.8	67.8	67.8	94	66.0	0	1	270	0.00	29.684 
05:05	67.8	67.8	67.8	94	66.0	0	1	270	0.00	29.684 
05:10	67.8	67.8	67.8	94	66.0	0	1	270	0.00	29.684 
05:15	67.9	67.9	67.9	94	66.1	0	1	270	0.00	29.683 
05:20	67.9	67.9	67.9	94	66.1	0	2	270	0.00	29.683 
05:25	68.1	68.1	68.1	94	66.3	0	3	270	0.00	29.683 
05:30	68.1	68.1	68.1	94	66.3	0	3	270	0.00	29.683 
05:35	68.3	68.3	68.3	94	66.5	0	1	270	0.00	29.683 
05:40	68.3	68.3	68.3	94	66.5	0	1	270	0.00	29.683 
05:45	68.3	68.3	68.3	93	66.2	0	2	270	0.00	29.683 
05:50	68.4	68.4	68.4	93	66.3	1	5	270	0.00	29.683 
05:55	68.4	68.4	68.4	93	66.3	1	4	270	0.00	29.683 
06:00	68.4	68.4	68.4	93	66.3	1	3	270	0.00	29.681 
06:05	68.4	68.4	68.4	92	66.0	0	3	270	0.00	29.681 
06:10	68.6	68.6	68.6	92	66.2	0	3	270	0.00	29.681 
06:15	68.6	68.6	68.6	92	66.2	0	2	270	0.00	29.678 
06:20	68.6	68.6	68.6	92	66.2	0	2	270	0.00	29.678 
06:25	68.6	68.6	68.6	92	66.2	0	2	270	0.00	29.678 
06:30	68.6	68.6	68.6	92	66.2	0	1	270	0.00	29.681 
06:35	68.6	68.6	68.6	92	66.2	0	1	270	0.00	29.681 
06:40	68.6	68.6	68.6	92	66.2	0	1	270	0.00	29.681 
06:45	68.6	68.6	68.6	92	66.2	0	1	270	0.00	29.685 
06:50	68.6	68.6	68.6	92	66.2	0	1	270	0.00	29.685 
06:55	68.4	68.4	68.4	92	66.0	0	2	270	0.00	29.685 
07:00	68.4	68.4	68.4	92	66.0	0	2	270	0.00	29.689 
07:05	68.4	68.4	68.4	91	65.7	0	3	270	0.00	29.689 
07:10	68.3	68.3	68.3	91	65.6	0	1	270	0.00	29.689 
07:15	68.3	68.3	68.3	91	65.6	1	3	270	0.00	29.697 
07:20	68.3	68.3	68.3	91	65.6	1	4	270	0.00	29.697 
07:25	68.3	68.3	68.3	91	65.6	1	3	270	0.00	29.697 
07:30	68.1	68.1	68.1	91	65.4	0	3	270	0.00	29.700 
07:35	68.1	68.1	68.1	91	65.4	0	1	270	0.00	29.700 
07:40	67.9	67.9	67.9	91	65.2	0	4	270	0.00	29.700 
07:45	67.8	67.8	67.8	91	65.1	1	3	270	0.00	29.703 
07:50	67.4	67.4	67.4	90	64.4	0	3	270	0.00	29.703 
07:55	67.3	67.3	67.3	91	64.6	0	4	270	0.00	29.703 
08:00	67.3	67.3	67.3	91	64.6	0	1	270	0.00	29.710 
08:05	67.1	67.1	67.1	91	64.4	0	2	270	0.00	29.710 
08:10	67.1	67.1	67.1	91	64.4	0	1	270	0.00	29.710 
08:15	66.9	66.9	66.9	91	64.2	0	1	270	0.00	29.715 
08:20	66.8	66.8	66.8	91	64.1	1	3	270	0.00	29.715 
08:25	66.8	66.8	66.8	91	64.1	0	2	270	0.00	29.715 
08:30	66.8	66.8	66.8	91	64.1	0	1	270	0.00	29.711 
08:35	66.6	66.6	66.6	91	63.9	0	1	270	0.00	29.711 
08:40	66.6	66.6	66.6	91	63.9	0	0	---	0.00	29.711 
08:45	66.6	66.6	66.6	90	63.6	0	3	270	0.00	29.708 
08:50	66.4	66.4	66.4	90	63.4	0	1	270	0.00	29.708 
08:55	66.3	66.3	66.3	90	63.3	0	2	292	0.00	29.708 
09:00	66.1	66.1	66.1	89	62.8	0	3	292	0.00	29.713 
09:05	66.0	66.0	66.0	88	62.3	0	3	292	0.00	29.713 
09:10	66.0	66.0	66.0	88	62.3	0	1	292	0.00	29.713 
09:15	66.1	66.1	66.1	88	62.4	0	1	292	0.00	29.702 
09:20	66.6	66.6	66.6	88	62.9	0	3	292	0.00	29.702 
09:25	67.3	67.3	67.3	87	63.3	0	2	292	0.00	29.702 
09:30	68.1	68.1	68.1	84	63.1	1	4	292	0.00	29.706 
09:35	68.4	68.4	68.4	82	62.7	1	4	292	0.00	29.706 
09:40	68.6	68.6	68.6	80	62.2	1	4	292	0.00	29.706 
09:45	68.3	68.3	68.3	81	62.2	0	3	292	0.00	29.711 
09:50	67.9	67.9	67.9	81	61.8	0	3	270	0.00	29.711 
09:55	67.4	67.4	67.4	81	61.4	0	3	270	0.00	29.711 
10:00	66.9	66.9	66.9	82	61.2	0	2	270	0.00	29.709 
10:05	66.6	66.6	66.6	83	61.3	0	3	270	0.00	29.709 
10:10	66.4	66.4	66.4	83	61.1	0	2	270	0.00	29.709 
10:15	66.4	66.4	66.4	84	61.4	0	1	270	0.00	29.714 
10:20	66.6	66.6	66.6	84	61.6	0	2	270	0.00	29.714 
10:25	66.8	66.8	66.8	83	61.5	0	2	270	0.00	29.714 
10:30	66.9	66.9	66.9	83	61.6	0	2	270	0.00	29.710 
10:35	67.1	67.1	67.1	82	61.4	1	4	270	0.00	29.710 
10:40	67.3	67.3	67.3	82	61.6	0	2	270	0.00	29.710 
10:45	67.4	67.4	67.4	81	61.4	1	2	270	0.00	29.711 
10:50	67.6	67.6	67.6	80	61.2	0	3	270	0.00	29.711 
10:55	67.6	67.6	67.6	79	60.8	0	3	270	0.00	29.711 
11:00	67.8	67.8	67.8	79	61.0	1	4	270	0.00	29.721 
11:05	67.6	67.6	67.6	79	60.8	1	3	270	0.00	29.721 
11:10	67.6	67.6	67.6	80	61.2	1	5	270	0.00	29.721 
11:15	67.4	67.4	67.4	81	61.4	1	4	270	0.00	29.727 
11:20	67.4	67.4	67.4	81	61.4	2	5	270	0.00	29.727 
11:25	67.8	67.8	67.8	83	62.4	1	3	270	0.00	29.727 
11:30	68.1	68.1	68.1	82	62.4	1	5	292	0.00	29.718 
11:35	68.8	68.8	68.8	83	63.4	1	4	292	0.00	29.718 
11:40	69.8	69.8	69.8	81	63.7	0	1	292	0.00	29.718 
11:45	70.1	70.1	70.1	79	63.3	0	3	292	0.00	29.714 
11:50	69.9	69.9	69.9	78	62.7	1	3	292	0.00	29.714 
11:55	69.4	69.4	69.4	79	62.6	1	2	292	0.00	29.714 
12:00	68.9	68.9	68.9	81	62.8	0	2	292	0.00	29.721 
12:05	68.4	68.4	68.4	81	62.3	0	3	292	0.00	29.721 
12:10	68.1	68.1	68.1	81	62.0	0	3	292	0.00	29.721 
12:15	67.8	67.8	67.8	82	62.1	1	3	292	0.00	29.722 
12:20	67.8	67.8	67.8	83	62.4	1	3	292	0.00	29.722 
12:25	67.6	67.6	67.6	82	61.9	2	4	292	0.00	29.722 
12:30	67.6	67.6	67.6	83	62.2	2	6	292	0.00	29.723 
12:35	67.4	67.4	67.4	84	62.4	2	5	270	0.00	29.723 
12:40	67.4	67.4	67.4	85	62.7	1	3	270	0.00	29.723 
12:45	67.8	67.8	67.8	85	63.1	2	4	270	0.00	29.721 
12:50	68.1	68.1	68.1	85	63.4	1	5	270	0.00	29.721 
12:55	68.1	68.1	68.1	83	62.7	1	4	270	0.00	29.721 
13:00	68.3	68.3	68.3	82	62.6	2	4	270	0.00	29.723 
13:05	68.6	68.6	68.6	81	62.5	1	4	270	0.00	29.723 
13:10	68.8	68.8	68.8	80	62.4	3	6	270	0.00	29.723 
13:15	68.8	68.8	68.8	80	62.4	2	6	270	0.00	29.724 
13:20	68.8	68.8	68.8	79	62.0	2	5	270	0.00	29.724 
13:25	68.6	68.6	68.6	77	61.1	3	7	270	0.00	29.724 
13:30	68.6	68.6	68.6	77	61.1	3	9	270	0.00	29.729 
13:35	69.1	69.1	69.1	77	61.6	3	11	338	0.00	29.729 
13:40	69.8	69.8	69.8	77	62.3	2	4	315	0.00	29.729 
13:45	69.8	69.8	69.8	74	61.1	3	6	315	0.00	29.732 
13:50	69.6	69.6	69.6	73	60.6	4	11	292	0.00	29.732 
13:55	68.9	68.9	68.9	73	59.9	3	7	315	0.00	29.732 
14:00	68.4	68.4	68.4	78	61.3	3	6	270	0.00	29.738 
14:05	67.6	67.6	67.6	81	61.6	1	3	270	0.00	29.738 
14:10	67.1	67.1	67.1	83	61.8	1	3	270	0.00	29.738 
14:15	67.1	67.1	67.1	84	62.1	1	3	270	0.00	29.741 
14:20	67.3	67.3	67.3	83	62.0	1	3	270	0.00	29.741 
14:25	67.4	67.4	67.4	82	61.7	1	3	270	0.00	29.741 
14:30	67.6	67.6	67.6	81	61.6	1	4	270	0.00	29.741 
14:35	67.9	67.9	67.9	79	61.1	1	4	315	0.00	29.741 
14:40	68.3	68.3	68.3	77	60.8	2	5	292	0.00	29.741 
14:45	68.4	68.4	68.4	75	60.2	2	5	270	0.00	29.744 
14:50	68.6	68.6	68.6	76	60.7	1	3	270	0.00	29.744 
14:55	68.4	68.4	68.4	75	60.2	2	9	338	0.00	29.744 
15:00	68.3	68.3	68.3	75	60.1	3	6	270	0.00	29.749 
15:05	68.3	68.3	68.3	75	60.1	3	5	292	0.00	29.749 
15:10	68.6	68.6	68.6	75	60.3	3	6	270	0.00	29.749 
15:15	68.8	68.8	68.8	73	59.8	4	10	270	0.00	29.749 
15:20	69.1	69.1	69.1	74	60.5	2	4	270	0.00	29.749 
15:25	69.6	69.6	69.6	72	60.2	3	5	270	0.00	29.749 
15:30	69.8	69.8	69.8	72	60.4	3	6	270	0.00	29.751 
15:35	69.1	69.1	69.1	72	59.7	4	10	270	0.00	29.751 
15:40	68.8	68.8	68.8	74	60.2	2	4	270	0.00	29.751 
15:45	68.3	68.3	68.3	75	60.1	2	8	292	0.00	29.756 
15:50	67.8	67.8	67.8	75	59.6	3	6	292	0.00	29.756 
15:55	67.4	67.4	67.4	77	59.9	2	6	292	0.00	29.756 
16:00	67.4	67.4	67.4	77	59.9	3	6	270	0.00	29.757 
16:05	67.6	67.6	67.6	77	60.1	3	10	270	0.00	29.757 
16:10	67.9	67.9	67.9	77	60.4	3	5	292	0.00	29.757 
16:15	68.1	68.1	68.1	76	60.2	3	6	292	0.00	29.754 
16:20	68.3	68.3	68.3	77	60.8	2	5	315	0.00	29.754 
16:25	68.6	68.6	68.6	76	60.7	3	6	270	0.00	29.754 
16:30	68.6	68.6	68.6	73	59.6	4	8	292	0.00	29.755 
16:35	68.3	68.3	68.3	73	59.3	3	6	292	0.00	29.755 
16:40	68.4	68.4	68.4	74	59.8	3	6	270	0.00	29.755 
16:45	68.4	68.4	68.4	73	59.4	3	7	292	0.00	29.765 
16:50	68.1	68.1	68.1	72	58.7	4	7	270	0.00	29.765 
16:55	68.1	68.1	68.1	73	59.1	3	7	292	0.00	29.765 
17:00	68.1	68.1	68.1	73	59.1	4	7	270	0.00	29.768 
17:05	68.1	68.1	68.1	73	59.1	3	9	270	0.00	29.768 
17:10	67.9	67.9	67.9	72	58.5	5	10	270	0.00	29.768 
17:15	67.6	67.6	67.6	73	58.6	5	9	292	0.00	29.770 
17:20	67.4	67.4	67.4	74	58.8	4	10	270	0.00	29.770 
17:25	67.3	67.3	67.3	73	58.3	4	7	292	0.00	29.770 
17:30	67.1	67.1	67.1	74	58.5	3	7	315	0.00	29.778 
17:35	66.9	66.9	66.9	74	58.3	4	9	315	0.00	29.778 
17:40	66.6	66.6	66.6	75	58.4	4	9	292	0.00	29.778 
17:45	66.4	66.4	66.4	75	58.2	4	10	338	0.00	29.786 
17:50	66.3	66.3	66.3	75	58.1	5	11	292	0.00	29.786 
17:55	66.1	66.1	66.1	75	57.9	5	7	270	0.00	29.786 
18:00	65.6	65.6	65.6	77	58.2	5	9	270	0.00	29.794 
18:05	65.2	65.2	65.2	78	58.2	4	9	270	0.00	29.794 
18:10	64.7	64.7	64.7	79	58.0	4	9	315	0.00	29.794 
18:15	64.5	64.5	64.5	80	58.2	4	8	315	0.00	29.801 
18:20	64.5	64.5	64.5	80	58.2	4	10	270	0.00	29.801 
18:25	64.3	64.3	64.3	81	58.3	4	7	292	0.00	29.801 
18:30	64.3	64.3	64.3	81	58.3	4	7	270	0.00	29.804 
18:35	64.3	64.3	64.3	81	58.3	4	9	270	0.00	29.804 
18:40	64.5	64.5	64.5	81	58.5	3	6	270	0.00	29.804 
18:45	64.5	64.5	64.5	81	58.5	4	7	270	0.00	29.806 
18:50	64.2	64.2	64.2	80	57.9	4	10	315	0.00	29.806 
18:55	63.9	63.9	63.9	79	57.3	4	10	270	0.00	29.806 
19:00	63.7	63.7	63.7	80	57.4	3	7	315	0.00	29.813 
19:05	63.7	63.7	63.7	80	57.4	3	6	270	0.00	29.813 
19:10	63.5	63.5	63.5	80	57.2	4	7	292	0.00	29.813 
19:15	63.4	63.4	63.4	80	57.1	3	6	270	0.00	29.819 
19:20	63.4	63.4	63.4	81	57.5	2	5	292	0.00	29.819 
19:25	63.1	63.1	63.1	81	57.2	3	6	292	0.00	29.819 
19:30	63.1	63.1	63.1	82	57.5	2	6	315	0.00	29.823 
19:35	62.7	62.7	62.7	82	57.1	3	6	270	0.00	29.823 
19:40	62.6	62.6	62.6	82	57.0	3	6	270	0.00	29.823 
19:45	62.4	62.4	62.4	82	56.8	3	7	270	0.00	29.833 
19:50	62.3	62.3	62.3	83	57.1	2	5	315	0.00	29.833 
19:55	62.1	62.1	62.1	83	56.9	3	5	270	0.00	29.833 
20:00	62.0	62.0	62.0	83	56.8	3	6	292	0.00	29.838 
20:05	62.0	62.0	62.0	83	56.8	4	9	292	0.00	29.838 
20:10	61.8	61.8	61.8	82	56.2	3	10	315	0.00	29.838 
20:15	61.8	61.8	61.8	83	56.6	3	6	270	0.00	29.842 
20:20	61.8	61.8	61.8	82	56.2	3	6	270	0.00	29.842 
20:25	61.8	61.8	61.8	83	56.6	1	4	270	0.00	29.842 
20:30	61.8	61.8	61.8	83	56.6	3	7	270	0.00	29.851 
20:35	61.6	61.6	61.6	83	56.4	3	9	315	0.00	29.851 
20:40	61.6	61.6	61.6	83	56.4	3	7	292	0.00	29.851 
20:45	61.5	61.5	61.5	83	56.3	3	9	292	0.00	29.853 
20:50	61.3	61.3	61.3	83	56.1	4	11	270	0.00	29.853 
20:55	61.2	61.2	61.2	83	56.0	4	10	270	0.00	29.853 
21:00	61.0	61.0	61.0	83	55.8	3	7	270	0.00	29.858 
21:05	61.0	61.0	61.0	83	55.8	2	5	292	0.00	29.858 
21:10	61.0	61.0	61.0	83	55.8	2	4	292	0.00	29.858 
21:15	60.9	60.9	60.9	83	55.7	2	7	292	0.00	29.866 
21:20	60.9	60.9	60.9	83	55.7	2	5	315	0.00	29.866 
21:25	60.9	60.9	60.9	83	55.7	1	5	292	0.00	29.866 
21:30	60.9	60.9	60.9	84	56.0	1	3	292	0.00	29.869 
21:35	60.9	60.9	60.9	84	56.0	1	4	292	0.00	29.869 
21:40	60.9	60.9	60.9	83	55.7	3	7	270	0.00	29.869 
21:45	60.7	60.7	60.7	83	55.5	2	6	338	0.00	29.877 
21:50	60.7	60.7	60.7	83	55.5	2	5	315	0.00	29.877 
21:55	60.7	60.7	60.7	83	55.5	2	5	292	0.00	29.877 
22:00	60.5	60.5	60.5	83	55.3	2	5	270	0.00	29.882 
22:05	60.5	60.5	60.5	83	55.3	3	7	338	0.00	29.882 
22:10	60.5	60.5	60.5	83	55.3	3	5	292	0.00	29.882 
22:15	60.5	60.5	60.5	83	55.3	2	5	315	0.00	29.885 
22:20	60.5	60.5	60.5	83	55.3	2	6	270	0.00	29.885 
22:25	60.5	60.5	60.5	83	55.3	2	5	292	0.00	29.885 
22:30	60.5	60.5	60.5	83	55.3	3	7	292	0.00	29.888 
22:35	60.5	60.5	60.5	83	55.3	2	6	315	0.00	29.888 
22:40	60.5	60.5	60.5	84	55.6	1	4	270	0.00	29.888 
22:45	60.5	60.5	60.5	84	55.6	2	7	338	0.00	29.896 
22:50	60.5	60.5	60.5	84	55.6	3	6	292	0.00	29.896 
22:55	60.5	60.5	60.5	84	55.6	4	8	292	0.00	29.896 
23:00	60.4	60.4	60.4	84	55.5	3	6	292	0.00	29.897 
23:05	60.4	60.4	60.4	84	55.5	2	6	292	0.00	29.897 
23:10	60.5	60.5	60.5	84	55.6	2	7	315	0.00	29.897 
23:15	60.5	60.5	60.5	84	55.6	3	7	338	0.00	29.900 
23:20	60.5	60.5	60.5	84	55.6	3	7	315	0.00	29.900 
23:25	60.5	60.5	60.5	84	55.6	3	11	292	0.00	29.900 
23:30	60.5	60.5	60.5	84	55.6	2	5	292	0.00	29.900 
23:35	60.5	60.5	60.5	84	55.6	2	5	292	0.00	29.900 
23:40	60.4	60.4	60.4	84	55.5	3	10	270	0.00	29.900 
23:45	60.4	60.4	60.4	84	55.5	2	6	338	0.00	29.904 
23:50	60.2	60.2	60.2	84	55.3	2	7	315	0.00	29.904 
23:55	60.1	60.1	60.1	83	54.9	2	6	315	0.00	29.904 

CoCoRaHS
IN-AL-39
A2 Web Hosting
Creative Commons License
GoDaddy
search engine by freefind advanced

loaded 2018-11-17 12:14:46 • last modified 2010-11-18 10:43:29
Privacy PolicyDisclaimer
• wx.awcolley.com is powered by PmWiki v.2002016 •
• all content (unless otherwise noted) © 2018 A W Colley